Easter Island, Chile
Current Conditions -  °F | °C
As of 8:00 AM on Thursday 30 Oct 2014 (Local Time) from SCIP Reporting Station
Broken Clouds Broken Clouds  
Wind Chill: 66°   Ceiling: 3000
Heat Index: 66°   Visibility: 6mi
Dew Point: 59°   Wind: 5mph
Humidity: 78%   Direction: 10°N
Pressure: 30.15"   Gusts: NA
Location:  27.12°S, 109.37°W
Report Text: SCIP 301400Z 01004KT 9999 SCT020 BKN030 19/15 Q1021 NOSIG
Loading
Personal Weather Stations






























Interactive Weather Map
Tropical Storm Tracking
New forecast layout! Learn more

10-Day Weather Forecast

Advertisements
Track Severe Weather on mobile